sensor_id;sensor_type;location;lat;lon;timestamp;temperature;humidity
6581;DHT22;3324;50.796;7.228;2023-05-10T00:01:59;14.50;99.90
6581;DHT22;3324;50.796;7.228;2023-05-10T00:04:26;14.50;99.90
6581;DHT22;3324;50.796;7.228;2023-05-10T00:06:53;14.50;99.90
6581;DHT22;3324;50.796;7.228;2023-05-10T00:09:19;14.40;99.90
6581;DHT22;3324;50.796;7.228;2023-05-10T00:11:44;14.40;99.90
6581;DHT22;3324;50.796;7.228;2023-05-10T00:14:11;14.50;99.90
6581;DHT22;3324;50.796;7.228;2023-05-10T00:16:37;14.50;99.90
6581;DHT22;3324;50.796;7.228;2023-05-10T00:19:02;14.50;99.90
6581;DHT22;3324;50.796;7.228;2023-05-10T00:21:28;14.40;99.90
6581;DHT22;3324;50.796;7.228;2023-05-10T00:23:54;14.50;99.90
6581;DHT22;3324;50.796;7.228;2023-05-10T00:26:20;14.40;99.90
6581;DHT22;3324;50.796;7.228;2023-05-10T00:28:45;14.30;99.90
6581;DHT22;3324;50.796;7.228;2023-05-10T00:31:11;14.40;99.90
6581;DHT22;3324;50.796;7.228;2023-05-10T00:33:36;14.30;99.90
6581;DHT22;3324;50.796;7.228;2023-05-10T00:36:02;14.40;99.90
6581;DHT22;3324;50.796;7.228;2023-05-10T00:38:28;14.40;99.90
6581;DHT22;3324;50.796;7.228;2023-05-10T00:40:53;14.40;99.90
6581;DHT22;3324;50.796;7.228;2023-05-10T00:43:19;14.30;99.90
6581;DHT22;3324;50.796;7.228;2023-05-10T00:45:45;14.30;99.90
6581;DHT22;3324;50.796;7.228;2023-05-10T00:48:11;14.30;99.90
6581;DHT22;3324;50.796;7.228;2023-05-10T00:50:37;14.30;99.90
6581;DHT22;3324;50.796;7.228;2023-05-10T00:53:05;14.30;99.90
6581;DHT22;3324;50.796;7.228;2023-05-10T00:55:31;14.30;99.90
6581;DHT22;3324;50.796;7.228;2023-05-10T00:57:57;14.30;99.90
6581;DHT22;3324;50.796;7.228;2023-05-10T01:00:22;14.30;99.90
6581;DHT22;3324;50.796;7.228;2023-05-10T01:02:48;14.30;99.90
6581;DHT22;3324;50.796;7.228;2023-05-10T01:05:14;14.30;99.90
6581;DHT22;3324;50.796;7.228;2023-05-10T01:07:40;14.30;99.90
6581;DHT22;3324;50.796;7.228;2023-05-10T01:10:07;14.40;99.90
6581;DHT22;3324;50.796;7.228;2023-05-10T01:12:35;14.30;99.90
6581;DHT22;3324;50.796;7.228;2023-05-10T01:15:02;14.40;99.90
6581;DHT22;3324;50.796;7.228;2023-05-10T01:17:28;14.40;99.90
6581;DHT22;3324;50.796;7.228;2023-05-10T01:19:54;14.40;99.90
6581;DHT22;3324;50.796;7.228;2023-05-10T01:22:42;14.40;99.90
6581;DHT22;3324;50.796;7.228;2023-05-10T01:34:12;14.30;99.90
6581;DHT22;3324;50.796;7.228;2023-05-10T01:36:58;14.30;99.90
6581;DHT22;3324;50.796;7.228;2023-05-10T01:42:11;14.40;99.90
6581;DHT22;3324;50.796;7.228;2023-05-10T01:47:54;14.30;99.90
6581;DHT22;3324;50.796;7.228;2023-05-10T01:50:27;14.30;99.90
6581;DHT22;3324;50.796;7.228;2023-05-10T01:52:56;14.20;99.90
6581;DHT22;3324;50.796;7.228;2023-05-10T01:55:25;14.20;99.90
6581;DHT22;3324;50.796;7.228;2023-05-10T01:57:55;14.20;99.90
6581;DHT22;3324;50.796;7.228;2023-05-10T02:00:23;14.30;99.90
6581;DHT22;3324;50.796;7.228;2023-05-10T02:02:50;14.30;99.90
6581;DHT22;3324;50.796;7.228;2023-05-10T02:05:16;14.30;99.90
6581;DHT22;3324;50.796;7.228;2023-05-10T02:07:43;14.30;99.90
6581;DHT22;3324;50.796;7.228;2023-05-10T02:10:10;14.20;99.90
6581;DHT22;3324;50.796;7.228;2023-05-10T02:12:39;14.20;99.90
6581;DHT22;3324;50.796;7.228;2023-05-10T02:15:07;14.20;99.90
6581;DHT22;3324;50.796;7.228;2023-05-10T02:17:34;14.20;99.90
6581;DHT22;3324;50.796;7.228;2023-05-10T02:20:02;14.10;99.90
6581;DHT22;3324;50.796;7.228;2023-05-10T02:22:29;14.10;99.90
6581;DHT22;3324;50.796;7.228;2023-05-10T02:24:56;14.10;99.90
6581;DHT22;3324;50.796;7.228;2023-05-10T02:27:23;14.10;99.90
6581;DHT22;3324;50.796;7.228;2023-05-10T02:29:51;14.20;99.90
6581;DHT22;3324;50.796;7.228;2023-05-10T02:32:18;14.20;99.90
6581;DHT22;3324;50.796;7.228;2023-05-10T02:34:45;14.20;99.90
6581;DHT22;3324;50.796;7.228;2023-05-10T02:37:15;14.20;99.90
6581;DHT22;3324;50.796;7.228;2023-05-10T02:39:44;14.20;99.90
6581;DHT22;3324;50.796;7.228;2023-05-10T02:42:17;14.10;99.90
6581;DHT22;3324;50.796;7.228;2023-05-10T02:44:45;14.20;99.90
6581;DHT22;3324;50.796;7.228;2023-05-10T02:47:11;14.20;99.90
6581;DHT22;3324;50.796;7.228;2023-05-10T02:49:36;14.10;99.90
6581;DHT22;3324;50.796;7.228;2023-05-10T02:52:05;14.20;99.90
6581;DHT22;3324;50.796;7.228;2023-05-10T02:54:39;14.10;99.90
6581;DHT22;3324;50.796;7.228;2023-05-10T02:57:07;14.20;99.90
6581;DHT22;3324;50.796;7.228;2023-05-10T02:59:35;14.10;99.90
6581;DHT22;3324;50.796;7.228;2023-05-10T03:02:01;14.10;99.90
6581;DHT22;3324;50.796;7.228;2023-05-10T03:04:27;14.10;99.90
6581;DHT22;3324;50.796;7.228;2023-05-10T03:06:53;14.00;99.90
6581;DHT22;3324;50.796;7.228;2023-05-10T03:09:18;14.00;99.90
6581;DHT22;3324;50.796;7.228;2023-05-10T03:14:49;14.10;99.90
6581;DHT22;3324;50.796;7.228;2023-05-10T03:17:35;14.10;99.90
6581;DHT22;3324;50.796;7.228;2023-05-10T03:20:16;14.00;99.90
6581;DHT22;3324;50.796;7.228;2023-05-10T03:22:50;14.00;99.90
6581;DHT22;3324;50.796;7.228;2023-05-10T03:25:17;14.00;99.90
6581;DHT22;3324;50.796;7.228;2023-05-10T03:27:44;14.00;99.90
6581;DHT22;3324;50.796;7.228;2023-05-10T03:30:12;14.00;99.90
6581;DHT22;3324;50.796;7.228;2023-05-10T03:32:38;14.00;99.90
6581;DHT22;3324;50.796;7.228;2023-05-10T03:35:10;13.90;99.90
6581;DHT22;3324;50.796;7.228;2023-05-10T03:37:37;13.90;99.90
6581;DHT22;3324;50.796;7.228;2023-05-10T03:40:03;14.00;99.90
6581;DHT22;3324;50.796;7.228;2023-05-10T03:42:29;14.00;99.90
6581;DHT22;3324;50.796;7.228;2023-05-10T03:44:55;14.00;99.90
6581;DHT22;3324;50.796;7.228;2023-05-10T03:47:20;14.10;99.90
6581;DHT22;3324;50.796;7.228;2023-05-10T03:49:46;14.10;99.90
6581;DHT22;3324;50.796;7.228;2023-05-10T03:52:11;14.10;99.90
6581;DHT22;3324;50.796;7.228;2023-05-10T03:54:37;14.10;99.90
6581;DHT22;3324;50.796;7.228;2023-05-10T03:57:03;14.10;99.90
6581;DHT22;3324;50.796;7.228;2023-05-10T03:59:29;14.10;99.90
6581;DHT22;3324;50.796;7.228;2023-05-10T04:01:55;14.10;99.90
6581;DHT22;3324;50.796;7.228;2023-05-10T04:04:20;14.10;99.90
6581;DHT22;3324;50.796;7.228;2023-05-10T04:06:47;14.20;99.90
6581;DHT22;3324;50.796;7.228;2023-05-10T04:09:12;14.10;99.90
6581;DHT22;3324;50.796;7.228;2023-05-10T04:11:39;14.10;99.90
6581;DHT22;3324;50.796;7.228;2023-05-10T04:14:04;14.10;99.90
6581;DHT22;3324;50.796;7.228;2023-05-10T04:16:30;14.10;99.90
6581;DHT22;3324;50.796;7.228;2023-05-10T04:18:55;14.10;99.90
6581;DHT22;3324;50.796;7.228;2023-05-10T04:21:21;14.10;99.90
6581;DHT22;3324;50.796;7.228;2023-05-10T04:23:47;14.10;99.90
6581;DHT22;3324;50.796;7.228;2023-05-10T04:26:13;14.10;99.90
6581;DHT22;3324;50.796;7.228;2023-05-10T04:28:39;14.20;99.90
6581;DHT22;3324;50.796;7.228;2023-05-10T04:31:09;14.20;99.90
6581;DHT22;3324;50.796;7.228;2023-05-10T04:33:35;14.10;99.90
6581;DHT22;3324;50.796;7.228;2023-05-10T04:36:01;14.10;99.90
6581;DHT22;3324;50.796;7.228;2023-05-10T04:38:26;14.10;99.90
6581;DHT22;3324;50.796;7.228;2023-05-10T04:40:52;14.10;99.90
6581;DHT22;3324;50.796;7.228;2023-05-10T04:43:18;14.20;99.90
6581;DHT22;3324;50.796;7.228;2023-05-10T04:45:43;14.20;99.90
6581;DHT22;3324;50.796;7.228;2023-05-10T04:48:09;14.30;99.90
6581;DHT22;3324;50.796;7.228;2023-05-10T04:50:35;14.40;99.90
6581;DHT22;3324;50.796;7.228;2023-05-10T04:53:00;14.30;99.90
6581;DHT22;3324;50.796;7.228;2023-05-10T04:55:26;14.20;99.90
6581;DHT22;3324;50.796;7.228;2023-05-10T04:57:52;14.30;99.90
6581;DHT22;3324;50.796;7.228;2023-05-10T05:00:18;14.30;99.90
6581;DHT22;3324;50.796;7.228;2023-05-10T05:02:45;14.20;99.90
6581;DHT22;3324;50.796;7.228;2023-05-10T05:05:11;14.20;99.90
6581;DHT22;3324;50.796;7.228;2023-05-10T05:07:37;14.20;99.90
6581;DHT22;3324;50.796;7.228;2023-05-10T05:10:04;14.20;99.90
6581;DHT22;3324;50.796;7.228;2023-05-10T05:12:30;14.60;99.90
6581;DHT22;3324;50.796;7.228;2023-05-10T05:14:56;15.00;99.90
6581;DHT22;3324;50.796;7.228;2023-05-10T05:17:21;15.40;99.90
6581;DHT22;3324;50.796;7.228;2023-05-10T05:19:47;15.70;99.90
6581;DHT22;3324;50.796;7.228;2023-05-10T05:22:13;15.80;99.90
6581;DHT22;3324;50.796;7.228;2023-05-10T05:24:38;15.90;99.90
6581;DHT22;3324;50.796;7.228;2023-05-10T05:27:04;16.00;99.90
6581;DHT22;3324;50.796;7.228;2023-05-10T05:29:30;16.00;99.90
6581;DHT22;3324;50.796;7.228;2023-05-10T05:31:56;16.10;99.90
6581;DHT22;3324;50.796;7.228;2023-05-10T05:34:21;16.10;99.90
6581;DHT22;3324;50.796;7.228;2023-05-10T05:36:48;16.00;99.90
6581;DHT22;3324;50.796;7.228;2023-05-10T05:39:13;15.80;99.90
6581;DHT22;3324;50.796;7.228;2023-05-10T05:41:39;15.50;99.90
6581;DHT22;3324;50.796;7.228;2023-05-10T05:44:04;15.40;99.90
6581;DHT22;3324;50.796;7.228;2023-05-10T05:46:30;15.20;99.90
6581;DHT22;3324;50.796;7.228;2023-05-10T05:48:56;15.00;99.90
6581;DHT22;3324;50.796;7.228;2023-05-10T05:51:21;14.90;99.90
6581;DHT22;3324;50.796;7.228;2023-05-10T05:53:47;14.80;99.90
6581;DHT22;3324;50.796;7.228;2023-05-10T05:56:13;14.70;99.90
6581;DHT22;3324;50.796;7.228;2023-05-10T05:58:39;14.70;99.90
6581;DHT22;3324;50.796;7.228;2023-05-10T06:01:04;14.70;99.90
6581;DHT22;3324;50.796;7.228;2023-05-10T06:03:32;14.70;99.90
6581;DHT22;3324;50.796;7.228;2023-05-10T06:05:58;14.60;99.90
6581;DHT22;3324;50.796;7.228;2023-05-10T06:08:23;14.60;99.90
6581;DHT22;3324;50.796;7.228;2023-05-10T06:10:49;14.60;99.90
6581;DHT22;3324;50.796;7.228;2023-05-10T06:13:14;14.60;99.90
6581;DHT22;3324;50.796;7.228;2023-05-10T06:15:40;14.60;99.90
6581;DHT22;3324;50.796;7.228;2023-05-10T06:18:06;14.60;99.90
6581;DHT22;3324;50.796;7.228;2023-05-10T06:20:32;14.60;99.90
6581;DHT22;3324;50.796;7.228;2023-05-10T06:22:57;14.70;99.90
6581;DHT22;3324;50.796;7.228;2023-05-10T06:25:23;14.70;99.90
6581;DHT22;3324;50.796;7.228;2023-05-10T06:27:49;14.70;99.90
6581;DHT22;3324;50.796;7.228;2023-05-10T06:30:15;14.70;99.90
6581;DHT22;3324;50.796;7.228;2023-05-10T06:32:41;14.80;99.90
6581;DHT22;3324;50.796;7.228;2023-05-10T06:35:07;14.80;99.90
6581;DHT22;3324;50.796;7.228;2023-05-10T06:37:33;14.80;99.90
6581;DHT22;3324;50.796;7.228;2023-05-10T06:40:00;14.80;99.90
6581;DHT22;3324;50.796;7.228;2023-05-10T06:42:26;14.80;99.90
6581;DHT22;3324;50.796;7.228;2023-05-10T06:44:52;14.90;99.90
6581;DHT22;3324;50.796;7.228;2023-05-10T06:47:18;14.90;99.90
6581;DHT22;3324;50.796;7.228;2023-05-10T06:49:44;14.90;99.90
6581;DHT22;3324;50.796;7.228;2023-05-10T06:52:09;14.90;99.90
6581;DHT22;3324;50.796;7.228;2023-05-10T06:54:35;15.00;99.90
6581;DHT22;3324;50.796;7.228;2023-05-10T06:57:00;15.00;99.90
6581;DHT22;3324;50.796;7.228;2023-05-10T06:59:28;15.00;99.90
6581;DHT22;3324;50.796;7.228;2023-05-10T07:01:53;15.00;99.90
6581;DHT22;3324;50.796;7.228;2023-05-10T07:04:19;15.10;99.90
6581;DHT22;3324;50.796;7.228;2023-05-10T07:06:45;15.10;99.90
6581;DHT22;3324;50.796;7.228;2023-05-10T07:09:11;15.10;99.90
6581;DHT22;3324;50.796;7.228;2023-05-10T07:11:37;15.10;99.90
6581;DHT22;3324;50.796;7.228;2023-05-10T07:14:03;15.10;99.90
6581;DHT22;3324;50.796;7.228;2023-05-10T07:16:28;15.10;99.90
6581;DHT22;3324;50.796;7.228;2023-05-10T07:18:54;15.10;99.90
6581;DHT22;3324;50.796;7.228;2023-05-10T07:21:19;15.10;99.90
6581;DHT22;3324;50.796;7.228;2023-05-10T07:23:45;15.10;99.90
6581;DHT22;3324;50.796;7.228;2023-05-10T07:26:11;15.00;99.90
6581;DHT22;3324;50.796;7.228;2023-05-10T07:28:36;15.00;99.90
6581;DHT22;3324;50.796;7.228;2023-05-10T07:31:03;14.90;99.90
6581;DHT22;3324;50.796;7.228;2023-05-10T07:33:28;14.90;99.90
6581;DHT22;3324;50.796;7.228;2023-05-10T07:35:54;14.90;99.90
6581;DHT22;3324;50.796;7.228;2023-05-10T07:38:20;14.90;99.90
6581;DHT22;3324;50.796;7.228;2023-05-10T07:40:45;14.90;99.90
6581;DHT22;3324;50.796;7.228;2023-05-10T07:43:11;14.90;99.90
6581;DHT22;3324;50.796;7.228;2023-05-10T07:45:36;14.90;99.90
6581;DHT22;3324;50.796;7.228;2023-05-10T07:48:02;14.80;99.90
6581;DHT22;3324;50.796;7.228;2023-05-10T07:50:28;14.80;99.90
6581;DHT22;3324;50.796;7.228;2023-05-10T07:52:53;14.80;99.90
6581;DHT22;3324;50.796;7.228;2023-05-10T07:55:19;14.90;99.90
6581;DHT22;3324;50.796;7.228;2023-05-10T07:57:46;14.90;99.90
6581;DHT22;3324;50.796;7.228;2023-05-10T08:00:13;14.90;99.90
6581;DHT22;3324;50.796;7.228;2023-05-10T08:02:41;15.00;99.90
6581;DHT22;3324;50.796;7.228;2023-05-10T08:05:07;14.90;99.90
6581;DHT22;3324;50.796;7.228;2023-05-10T08:07:33;14.90;99.90
6581;DHT22;3324;50.796;7.228;2023-05-10T08:09:59;14.90;99.90
6581;DHT22;3324;50.796;7.228;2023-05-10T08:12:24;14.90;99.90
6581;DHT22;3324;50.796;7.228;2023-05-10T08:14:50;14.90;99.90
6581;DHT22;3324;50.796;7.228;2023-05-10T08:17:16;14.90;99.90
6581;DHT22;3324;50.796;7.228;2023-05-10T08:19:41;14.80;99.90
6581;DHT22;3324;50.796;7.228;2023-05-10T08:22:07;14.80;99.90
6581;DHT22;3324;50.796;7.228;2023-05-10T08:24:33;14.80;99.90
6581;DHT22;3324;50.796;7.228;2023-05-10T08:27:07;14.80;99.90
6581;DHT22;3324;50.796;7.228;2023-05-10T08:29:32;14.80;99.90
6581;DHT22;3324;50.796;7.228;2023-05-10T08:31:58;14.90;99.90
6581;DHT22;3324;50.796;7.228;2023-05-10T08:34:24;14.90;99.90
6581;DHT22;3324;50.796;7.228;2023-05-10T08:36:50;14.90;99.90
6581;DHT22;3324;50.796;7.228;2023-05-10T08:39:15;15.00;99.90
6581;DHT22;3324;50.796;7.228;2023-05-10T08:41:44;15.00;99.90
6581;DHT22;3324;50.796;7.228;2023-05-10T08:44:10;14.90;99.90
6581;DHT22;3324;50.796;7.228;2023-05-10T08:46:37;14.90;99.90
6581;DHT22;3324;50.796;7.228;2023-05-10T08:49:09;15.00;99.90
6581;DHT22;3324;50.796;7.228;2023-05-10T08:51:40;15.00;99.90
6581;DHT22;3324;50.796;7.228;2023-05-10T08:54:06;15.00;99.90
6581;DHT22;3324;50.796;7.228;2023-05-10T08:56:32;15.00;99.90
6581;DHT22;3324;50.796;7.228;2023-05-10T08:58:57;15.10;99.90
6581;DHT22;3324;50.796;7.228;2023-05-10T09:01:24;15.20;99.90
6581;DHT22;3324;50.796;7.228;2023-05-10T09:03:50;15.30;99.90
6581;DHT22;3324;50.796;7.228;2023-05-10T09:06:16;15.40;99.90
6581;DHT22;3324;50.796;7.228;2023-05-10T09:08:42;15.40;99.90
6581;DHT22;3324;50.796;7.228;2023-05-10T09:11:09;15.50;99.90
6581;DHT22;3324;50.796;7.228;2023-05-10T09:13:36;15.60;99.90
6581;DHT22;3324;50.796;7.228;2023-05-10T09:16:03;15.70;99.90
6581;DHT22;3324;50.796;7.228;2023-05-10T09:18:28;15.80;99.90
6581;DHT22;3324;50.796;7.228;2023-05-10T09:20:54;15.80;99.90
6581;DHT22;3324;50.796;7.228;2023-05-10T09:23:20;15.80;99.90
6581;DHT22;3324;50.796;7.228;2023-05-10T09:25:46;15.90;99.90
6581;DHT22;3324;50.796;7.228;2023-05-10T09:28:12;15.90;99.90
6581;DHT22;3324;50.796;7.228;2023-05-10T09:30:38;15.90;99.90
6581;DHT22;3324;50.796;7.228;2023-05-10T09:33:04;15.90;99.90
6581;DHT22;3324;50.796;7.228;2023-05-10T09:35:31;15.80;99.90
6581;DHT22;3324;50.796;7.228;2023-05-10T09:37:59;15.80;99.90
6581;DHT22;3324;50.796;7.228;2023-05-10T09:40:27;15.80;99.90
6581;DHT22;3324;50.796;7.228;2023-05-10T09:42:55;15.80;99.90
6581;DHT22;3324;50.796;7.228;2023-05-10T09:45:22;15.80;99.90
6581;DHT22;3324;50.796;7.228;2023-05-10T09:47:48;15.70;99.90
6581;DHT22;3324;50.796;7.228;2023-05-10T09:50:14;15.80;99.90
6581;DHT22;3324;50.796;7.228;2023-05-10T09:52:51;15.80;99.90
6581;DHT22;3324;50.796;7.228;2023-05-10T09:55:21;15.80;99.90
6581;DHT22;3324;50.796;7.228;2023-05-10T09:57:48;15.70;99.90
6581;DHT22;3324;50.796;7.228;2023-05-10T10:00:18;15.70;99.90
6581;DHT22;3324;50.796;7.228;2023-05-10T10:02:53;15.70;99.90
6581;DHT22;3324;50.796;7.228;2023-05-10T10:05:20;15.80;99.90
6581;DHT22;3324;50.796;7.228;2023-05-10T10:07:45;15.90;99.90
6581;DHT22;3324;50.796;7.228;2023-05-10T10:10:11;16.00;99.90
6581;DHT22;3324;50.796;7.228;2023-05-10T10:12:39;16.20;99.90
6581;DHT22;3324;50.796;7.228;2023-05-10T10:15:07;16.30;99.90
6581;DHT22;3324;50.796;7.228;2023-05-10T10:17:35;16.40;99.90
6581;DHT22;3324;50.796;7.228;2023-05-10T10:20:03;16.50;99.90
6581;DHT22;3324;50.796;7.228;2023-05-10T10:22:28;16.60;99.90
6581;DHT22;3324;50.796;7.228;2023-05-10T10:24:54;16.60;99.90
6581;DHT22;3324;50.796;7.228;2023-05-10T10:27:26;16.60;99.90
6581;DHT22;3324;50.796;7.228;2023-05-10T10:32:44;16.70;99.90
6581;DHT22;3324;50.796;7.228;2023-05-10T10:35:15;16.80;99.90
6581;DHT22;3324;50.796;7.228;2023-05-10T10:37:43;16.80;99.90
6581;DHT22;3324;50.796;7.228;2023-05-10T10:40:25;16.80;99.90
6581;DHT22;3324;50.796;7.228;2023-05-10T10:42:52;16.90;99.90
6581;DHT22;3324;50.796;7.228;2023-05-10T10:45:19;17.10;99.90
6581;DHT22;3324;50.796;7.228;2023-05-10T10:47:45;17.20;99.90
6581;DHT22;3324;50.796;7.228;2023-05-10T10:50:11;17.30;99.90
6581;DHT22;3324;50.796;7.228;2023-05-10T10:52:42;17.30;99.90
6581;DHT22;3324;50.796;7.228;2023-05-10T10:55:12;17.30;99.90
6581;DHT22;3324;50.796;7.228;2023-05-10T10:57:47;17.20;99.90
6581;DHT22;3324;50.796;7.228;2023-05-10T11:03:15;17.20;99.90
6581;DHT22;3324;50.796;7.228;2023-05-10T11:05:48;17.20;99.90
6581;DHT22;3324;50.796;7.228;2023-05-10T11:08:15;17.10;99.90
6581;DHT22;3324;50.796;7.228;2023-05-10T11:10:50;17.00;99.90
6581;DHT22;3324;50.796;7.228;2023-05-10T11:13:30;17.00;99.90
6581;DHT22;3324;50.796;7.228;2023-05-10T11:15:56;16.80;99.90
6581;DHT22;3324;50.796;7.228;2023-05-10T11:18:23;16.70;99.90
6581;DHT22;3324;50.796;7.228;2023-05-10T11:20:51;16.60;99.90
6581;DHT22;3324;50.796;7.228;2023-05-10T11:23:17;16.60;99.90
6581;DHT22;3324;50.796;7.228;2023-05-10T11:25:44;16.70;99.90
6581;DHT22;3324;50.796;7.228;2023-05-10T11:28:13;16.70;99.90
6581;DHT22;3324;50.796;7.228;2023-05-10T11:30:41;16.80;99.90
6581;DHT22;3324;50.796;7.228;2023-05-10T11:33:07;16.90;99.90
6581;DHT22;3324;50.796;7.228;2023-05-10T11:35:40;17.00;99.90
6581;DHT22;3324;50.796;7.228;2023-05-10T11:38:09;17.00;99.90
6581;DHT22;3324;50.796;7.228;2023-05-10T11:40:36;17.10;99.90
6581;DHT22;3324;50.796;7.228;2023-05-10T11:43:03;17.20;99.90
6581;DHT22;3324;50.796;7.228;2023-05-10T11:45:29;17.20;99.90
6581;DHT22;3324;50.796;7.228;2023-05-10T11:47:57;17.20;99.90
6581;DHT22;3324;50.796;7.228;2023-05-10T11:50:24;17.20;99.90
6581;DHT22;3324;50.796;7.228;2023-05-10T11:52:54;17.20;99.90
6581;DHT22;3324;50.796;7.228;2023-05-10T11:55:20;17.10;99.90
6581;DHT22;3324;50.796;7.228;2023-05-10T11:57:45;17.10;99.90
6581;DHT22;3324;50.796;7.228;2023-05-10T12:00:12;17.20;99.90
6581;DHT22;3324;50.796;7.228;2023-05-10T12:02:38;17.10;99.90
6581;DHT22;3324;50.796;7.228;2023-05-10T12:05:05;17.00;99.90
6581;DHT22;3324;50.796;7.228;2023-05-10T12:07:31;17.10;99.90
6581;DHT22;3324;50.796;7.228;2023-05-10T12:12:39;17.10;99.90
6581;DHT22;3324;50.796;7.228;2023-05-10T12:15:11;17.10;99.90
6581;DHT22;3324;50.796;7.228;2023-05-10T12:17:38;17.20;99.90
6581;DHT22;3324;50.796;7.228;2023-05-10T12:22:52;17.40;99.90
6581;DHT22;3324;50.796;7.228;2023-05-10T12:25:19;17.50;99.90
6581;DHT22;3324;50.796;7.228;2023-05-10T12:27:53;17.50;99.90
6581;DHT22;3324;50.796;7.228;2023-05-10T12:30:27;17.60;99.90
6581;DHT22;3324;50.796;7.228;2023-05-10T12:32:53;17.60;99.90
6581;DHT22;3324;50.796;7.228;2023-05-10T12:35:20;17.70;99.90
6581;DHT22;3324;50.796;7.228;2023-05-10T12:37:51;17.70;99.90
6581;DHT22;3324;50.796;7.228;2023-05-10T12:40:16;17.80;99.90
6581;DHT22;3324;50.796;7.228;2023-05-10T12:42:42;17.80;99.90
6581;DHT22;3324;50.796;7.228;2023-05-10T12:45:10;17.80;99.90
6581;DHT22;3324;50.796;7.228;2023-05-10T12:47:37;17.90;99.90
6581;DHT22;3324;50.796;7.228;2023-05-10T12:50:03;17.80;99.90
6581;DHT22;3324;50.796;7.228;2023-05-10T12:52:29;17.80;99.90
6581;DHT22;3324;50.796;7.228;2023-05-10T12:54:55;17.80;99.90
6581;DHT22;3324;50.796;7.228;2023-05-10T12:57:20;17.90;99.90
6581;DHT22;3324;50.796;7.228;2023-05-10T12:59:47;17.90;99.90
6581;DHT22;3324;50.796;7.228;2023-05-10T13:02:12;17.90;99.90
6581;DHT22;3324;50.796;7.228;2023-05-10T13:04:40;17.90;99.90
6581;DHT22;3324;50.796;7.228;2023-05-10T13:07:09;17.70;99.90
6581;DHT22;3324;50.796;7.228;2023-05-10T13:09:35;17.70;99.90
6581;DHT22;3324;50.796;7.228;2023-05-10T13:12:01;17.80;99.90
6581;DHT22;3324;50.796;7.228;2023-05-10T13:14:27;17.90;99.90
6581;DHT22;3324;50.796;7.228;2023-05-10T13:16:52;17.90;99.90
6581;DHT22;3324;50.796;7.228;2023-05-10T13:19:19;17.90;99.90
6581;DHT22;3324;50.796;7.228;2023-05-10T13:21:45;17.90;99.90
6581;DHT22;3324;50.796;7.228;2023-05-10T13:24:11;17.90;99.90
6581;DHT22;3324;50.796;7.228;2023-05-10T13:26:39;17.90;99.90
6581;DHT22;3324;50.796;7.228;2023-05-10T13:29:06;17.80;99.90
6581;DHT22;3324;50.796;7.228;2023-05-10T13:31:32;17.70;99.90
6581;DHT22;3324;50.796;7.228;2023-05-10T13:33:57;17.70;99.90
6581;DHT22;3324;50.796;7.228;2023-05-10T13:36:23;17.50;99.90
6581;DHT22;3324;50.796;7.228;2023-05-10T13:38:48;17.40;99.90
6581;DHT22;3324;50.796;7.228;2023-05-10T13:41:14;17.40;99.90
6581;DHT22;3324;50.796;7.228;2023-05-10T13:43:40;17.40;99.90
6581;DHT22;3324;50.796;7.228;2023-05-10T13:46:05;17.40;99.90
6581;DHT22;3324;50.796;7.228;2023-05-10T13:48:31;17.40;99.90
6581;DHT22;3324;50.796;7.228;2023-05-10T13:50:56;17.40;99.90
6581;DHT22;3324;50.796;7.228;2023-05-10T13:53:22;17.40;99.90
6581;DHT22;3324;50.796;7.228;2023-05-10T13:55:48;17.40;99.90
6581;DHT22;3324;50.796;7.228;2023-05-10T13:58:14;17.40;99.90
6581;DHT22;3324;50.796;7.228;2023-05-10T14:00:39;17.30;99.90
6581;DHT22;3324;50.796;7.228;2023-05-10T14:03:05;17.20;99.90
6581;DHT22;3324;50.796;7.228;2023-05-10T14:05:32;17.10;99.90
6581;DHT22;3324;50.796;7.228;2023-05-10T14:07:58;16.90;99.90
6581;DHT22;3324;50.796;7.228;2023-05-10T14:10:23;16.80;99.90
6581;DHT22;3324;50.796;7.228;2023-05-10T14:12:49;16.70;99.90
6581;DHT22;3324;50.796;7.228;2023-05-10T14:15:15;16.50;99.90
6581;DHT22;3324;50.796;7.228;2023-05-10T14:17:41;16.50;99.90
6581;DHT22;3324;50.796;7.228;2023-05-10T14:20:07;16.40;99.90
6581;DHT22;3324;50.796;7.228;2023-05-10T14:22:33;16.40;99.90
6581;DHT22;3324;50.796;7.228;2023-05-10T14:24:58;16.50;99.90
6581;DHT22;3324;50.796;7.228;2023-05-10T14:27:24;16.50;99.90
6581;DHT22;3324;50.796;7.228;2023-05-10T14:29:50;16.50;99.90
6581;DHT22;3324;50.796;7.228;2023-05-10T14:32:15;16.50;99.90
6581;DHT22;3324;50.796;7.228;2023-05-10T14:34:41;16.50;99.90
6581;DHT22;3324;50.796;7.228;2023-05-10T14:37:06;16.50;99.90
6581;DHT22;3324;50.796;7.228;2023-05-10T14:39:32;16.60;99.90
6581;DHT22;3324;50.796;7.228;2023-05-10T14:41:58;16.60;99.90
6581;DHT22;3324;50.796;7.228;2023-05-10T14:44:24;16.60;99.90
6581;DHT22;3324;50.796;7.228;2023-05-10T14:46:50;16.70;99.90
6581;DHT22;3324;50.796;7.228;2023-05-10T14:49:16;16.80;99.90
6581;DHT22;3324;50.796;7.228;2023-05-10T14:51:42;16.90;99.90
6581;DHT22;3324;50.796;7.228;2023-05-10T14:54:08;16.90;99.90
6581;DHT22;3324;50.796;7.228;2023-05-10T14:56:33;16.90;99.90
6581;DHT22;3324;50.796;7.228;2023-05-10T14:58:59;16.80;99.90
6581;DHT22;3324;50.796;7.228;2023-05-10T15:01:25;16.70;99.90
6581;DHT22;3324;50.796;7.228;2023-05-10T15:03:51;16.70;99.90
6581;DHT22;3324;50.796;7.228;2023-05-10T15:06:16;16.50;99.90
6581;DHT22;3324;50.796;7.228;2023-05-10T15:08:42;16.40;99.90
6581;DHT22;3324;50.796;7.228;2023-05-10T15:11:08;16.30;99.90
6581;DHT22;3324;50.796;7.228;2023-05-10T15:13:34;16.20;99.90
6581;DHT22;3324;50.796;7.228;2023-05-10T15:16:00;16.10;99.90
6581;DHT22;3324;50.796;7.228;2023-05-10T15:18:25;16.20;99.90
6581;DHT22;3324;50.796;7.228;2023-05-10T15:20:51;16.20;99.90
6581;DHT22;3324;50.796;7.228;2023-05-10T15:23:17;16.10;99.90
6581;DHT22;3324;50.796;7.228;2023-05-10T15:25:42;16.20;99.90
6581;DHT22;3324;50.796;7.228;2023-05-10T15:28:08;16.20;99.90
6581;DHT22;3324;50.796;7.228;2023-05-10T15:30:33;16.30;99.90
6581;DHT22;3324;50.796;7.228;2023-05-10T15:32:59;16.50;99.90
6581;DHT22;3324;50.796;7.228;2023-05-10T15:35:26;16.60;99.90
6581;DHT22;3324;50.796;7.228;2023-05-10T15:37:52;16.70;99.90
6581;DHT22;3324;50.796;7.228;2023-05-10T15:40:17;16.80;99.90
6581;DHT22;3324;50.796;7.228;2023-05-10T15:42:43;16.80;99.90
6581;DHT22;3324;50.796;7.228;2023-05-10T15:45:09;16.80;99.90
6581;DHT22;3324;50.796;7.228;2023-05-10T15:47:36;16.70;99.90
6581;DHT22;3324;50.796;7.228;2023-05-10T15:50:01;16.60;99.90
6581;DHT22;3324;50.796;7.228;2023-05-10T15:52:27;16.60;99.90
6581;DHT22;3324;50.796;7.228;2023-05-10T15:54:52;16.60;99.90
6581;DHT22;3324;50.796;7.228;2023-05-10T15:57:18;16.60;99.90
6581;DHT22;3324;50.796;7.228;2023-05-10T15:59:44;16.70;99.90
6581;DHT22;3324;50.796;7.228;2023-05-10T16:02:10;16.70;99.90
6581;DHT22;3324;50.796;7.228;2023-05-10T16:04:36;16.70;99.90
6581;DHT22;3324;50.796;7.228;2023-05-10T16:07:02;16.80;99.90
6581;DHT22;3324;50.796;7.228;2023-05-10T16:09:28;16.70;99.90
6581;DHT22;3324;50.796;7.228;2023-05-10T16:11:53;16.50;99.90
6581;DHT22;3324;50.796;7.228;2023-05-10T16:14:19;16.40;99.90
6581;DHT22;3324;50.796;7.228;2023-05-10T16:16:47;16.30;99.90
6581;DHT22;3324;50.796;7.228;2023-05-10T16:19:13;16.20;99.90
6581;DHT22;3324;50.796;7.228;2023-05-10T16:21:38;16.20;99.90
6581;DHT22;3324;50.796;7.228;2023-05-10T16:24:04;16.20;99.90
6581;DHT22;3324;50.796;7.228;2023-05-10T16:26:30;16.20;99.90
6581;DHT22;3324;50.796;7.228;2023-05-10T16:28:56;16.10;99.90